aviador You're here:

YBUD Decoded Metar

in
Report Time2018-01-17 05:00:00
UTC Time2018-01-17 05:16:34
Flight Rules vfr VFR
Wind090° at 11 kt
W.Decomp.*RWY 07: 10.3 kt HW 3.8 kt RCW
RWY 14: 7.1 kt HW 8.4 kt LCW
W.Rank090° ranks 10
Current wind is above 090° avg. (9.6)
Visibility9999 m
Phenomena:N/A
Clouds:Scattered 045 Hf
Scattered 055 Hf
Expected CloudBase > 5,200 ft AGL from Temp-Dew spread
CeilingNone
Temp29°C
Dew Point16°C (45% RH)
Heat Index29.1°C
AAT27.0°C
QNH1014 hPa
Raw Report
METAR YBUD 170500Z AUTO 09011KT 9999 // SCT045 SCT055 29/16 Q1014=

Extra information for YBUD:More info

Social comments